createdAt,value
2018-11-29T00:00:23.501Z,90.13
2018-11-29T00:02:52.086Z,88.77
2018-11-29T00:05:20.485Z,82.03
2018-11-29T00:07:48.908Z,76.23
2018-11-29T00:10:17.313Z,80.47
2018-11-29T00:12:45.729Z,81.37
2018-11-29T00:15:15.069Z,79.17
2018-11-29T00:17:43.695Z,73.60
2018-11-29T00:20:16.129Z,97.13
2018-11-29T00:22:45.342Z,109.33
2018-11-29T00:25:14.961Z,105.17
2018-11-29T00:27:44.656Z,112.10
2018-11-29T00:30:17.135Z,109.10
2018-11-29T00:32:45.555Z,107.03
2018-11-29T00:35:14.819Z,102.83
2018-11-29T00:37:43.372Z,101.07
2018-11-29T00:40:13.901Z,96.13
2018-11-29T00:42:42.359Z,93.10
2018-11-29T00:45:12.938Z,92.63
2018-11-29T00:47:42.030Z,95.73
2018-11-29T00:50:12.307Z,126.47
2018-11-29T00:52:41.826Z,124.77
2018-11-29T00:55:11.359Z,115.57
2018-11-29T00:57:40.214Z,120.07
2018-11-29T01:00:24.337Z,121.07
2018-11-29T01:02:53.395Z,122.20
2018-11-29T01:05:21.816Z,138.17
2018-11-29T01:07:50.233Z,145.20
2018-11-29T01:10:19.174Z,138.77
2018-11-29T01:12:48.225Z,142.53
2018-11-29T01:15:17.638Z,138.23
2018-11-29T01:17:46.923Z,130.90
2018-11-29T01:20:16.465Z,125.83
2018-11-29T01:22:44.869Z,124.43
2018-11-29T01:25:14.161Z,118.47
2018-11-29T01:27:43.623Z,117.93
2018-11-29T01:30:20.869Z,109.63
2018-11-29T01:32:49.297Z,107.00
2018-11-29T01:35:18.806Z,107.47
2018-11-29T01:37:47.253Z,109.67
2018-11-29T01:40:23.285Z,102.63
2018-11-29T01:42:55.818Z,105.40
2018-11-29T01:45:24.591Z,121.47
2018-11-29T01:47:53.023Z,116.77
2018-11-29T01:50:21.423Z,115.60
2018-11-29T01:52:49.842Z,111.47
2018-11-29T01:55:18.246Z,106.83
2018-11-29T01:57:46.670Z,106.07
2018-11-29T02:00:15.855Z,104.00
2018-11-29T02:02:45.332Z,97.80
2018-11-29T02:05:13.752Z,101.20
2018-11-29T02:07:42.155Z,97.83
2018-11-29T02:10:16.998Z,104.27
2018-11-29T02:12:45.381Z,102.80
2018-11-29T02:15:13.778Z,101.80
2018-11-29T02:17:42.158Z,114.47
2018-11-29T02:20:13.314Z,126.33
2018-11-29T02:22:41.726Z,123.17
2018-11-29T02:25:10.142Z,117.30
2018-11-29T02:27:38.562Z,118.57
2018-11-29T02:30:14.324Z,115.00
2018-11-29T02:32:42.718Z,108.20
2018-11-29T02:35:11.174Z,112.97
2018-11-29T02:37:39.574Z,105.87
2018-11-29T02:40:10.544Z,105.37
2018-11-29T02:42:39.258Z,111.53
2018-11-29T02:45:09.767Z,109.53
2018-11-29T02:47:38.188Z,114.70
2018-11-29T02:50:07.834Z,146.73
2018-11-29T02:52:36.487Z,150.17
2018-11-29T02:55:05.822Z,137.87
2018-11-29T02:57:34.225Z,129.50
2018-11-29T03:00:02.642Z,135.67
2018-11-29T03:02:31.070Z,125.63
2018-11-29T03:04:59.526Z,128.13
2018-11-29T03:07:27.989Z,134.30
2018-11-29T03:09:56.391Z,127.70
2018-11-29T03:12:24.801Z,123.40
2018-11-29T03:14:53.210Z,120.30
2018-11-29T03:17:21.607Z,115.20
2018-11-29T03:19:50.628Z,113.60
2018-11-29T03:22:19.021Z,110.20
2018-11-29T03:24:47.444Z,115.50
2018-11-29T03:27:15.839Z,111.50
2018-11-29T03:29:44.258Z,108.53
2018-11-29T03:32:12.683Z,106.97
2018-11-29T03:34:41.090Z,104.80
2018-11-29T03:37:09.506Z,103.10
2018-11-29T03:39:37.925Z,105.70
2018-11-29T03:42:06.553Z,104.10
2018-11-29T03:44:34.983Z,102.57
2018-11-29T03:47:03.379Z,100.23
2018-11-29T03:49:31.787Z,95.33
2018-11-29T03:52:00.190Z,99.67
2018-11-29T03:54:29.528Z,97.17
2018-11-29T03:56:57.942Z,98.33
2018-11-29T03:59:26.355Z,92.37
2018-11-29T04:01:54.767Z,91.83
2018-11-29T04:04:23.157Z,94.57
2018-11-29T04:06:51.575Z,94.43
2018-11-29T04:09:19.973Z,89.67
2018-11-29T04:11:48.399Z,87.53
2018-11-29T04:14:16.807Z,88.83
2018-11-29T04:16:45.191Z,85.60
2018-11-29T04:19:13.598Z,84.47
2018-11-29T04:21:42.007Z,85.43
2018-11-29T04:24:10.430Z,83.27
2018-11-29T04:26:38.832Z,81.60
2018-11-29T04:29:07.245Z,80.60
2018-11-29T04:31:35.635Z,76.50
2018-11-29T04:34:04.268Z,76.43
2018-11-29T04:36:32.665Z,78.50
2018-11-29T04:39:01.090Z,78.40
2018-11-29T04:41:29.494Z,76.83
2018-11-29T04:43:57.955Z,73.17
2018-11-29T04:46:42.423Z,75.00
2018-11-29T04:49:10.915Z,70.37
2018-11-29T04:51:39.389Z,72.23
2018-11-29T04:54:08.666Z,70.83
2018-11-29T04:56:37.074Z,70.33
2018-11-29T04:59:05.768Z,69.73
2018-11-29T05:01:34.200Z,71.00
2018-11-29T05:04:02.599Z,69.20
2018-11-29T05:06:31.001Z,67.03
2018-11-29T05:08:59.478Z,67.97
2018-11-29T05:11:27.866Z,64.40
2018-11-29T05:13:56.274Z,65.93
2018-11-29T05:16:24.671Z,66.03
2018-11-29T05:18:53.078Z,62.93
2018-11-29T05:21:21.546Z,61.27
2018-11-29T05:23:49.938Z,60.97
2018-11-29T05:26:18.362Z,58.97
2018-11-29T05:28:46.754Z,60.40
2018-11-29T05:31:15.158Z,57.30
2018-11-29T05:33:43.566Z,58.87
2018-11-29T05:36:11.979Z,55.57
2018-11-29T05:38:40.382Z,58.17
2018-11-29T05:41:08.823Z,57.40
2018-11-29T05:43:37.219Z,55.77
2018-11-29T05:46:05.666Z,53.57
2018-11-29T05:48:34.117Z,54.17
2018-11-29T05:51:02.510Z,56.40
2018-11-29T05:53:30.908Z,52.40
2018-11-29T05:55:59.315Z,51.67
2018-11-29T05:58:27.739Z,52.97
2018-11-29T06:00:56.349Z,51.20
2018-11-29T06:03:24.810Z,50.97
2018-11-29T06:05:53.214Z,51.27
2018-11-29T06:08:21.647Z,49.83
2018-11-29T06:10:50.045Z,48.30
2018-11-29T06:13:18.460Z,49.30
2018-11-29T06:15:46.871Z,49.63
2018-11-29T06:18:15.291Z,49.53
2018-11-29T06:20:43.692Z,45.73
2018-11-29T06:23:12.090Z,45.43
2018-11-29T06:25:40.500Z,45.63
2018-11-29T06:28:08.907Z,46.77
2018-11-29T06:30:37.412Z,45.27
2018-11-29T06:33:05.817Z,44.63
2018-11-29T06:35:34.241Z,45.00
2018-11-29T06:38:02.642Z,44.03
2018-11-29T06:40:31.051Z,42.00
2018-11-29T06:42:59.452Z,39.83
2018-11-29T06:45:27.859Z,41.13
2018-11-29T06:47:56.293Z,41.70
2018-11-29T06:50:24.755Z,41.53
2018-11-29T06:52:53.189Z,40.67
2018-11-29T06:55:23.546Z,39.87
2018-11-29T06:57:53.585Z,39.73
2018-11-29T07:00:28.440Z,37.33
2018-11-29T07:02:56.934Z,37.63
2018-11-29T07:05:25.330Z,38.07
2018-11-29T07:07:53.740Z,37.07
2018-11-29T07:10:27.618Z,36.53
2018-11-29T07:12:56.046Z,36.47
2018-11-29T07:15:24.454Z,39.10
2018-11-29T07:17:52.851Z,33.93
2018-11-29T07:20:21.289Z,36.50
2018-11-29T07:22:49.702Z,34.93
2018-11-29T07:25:18.222Z,36.27
2018-11-29T07:27:46.662Z,34.47
2018-11-29T07:30:17.081Z,32.80
2018-11-29T07:32:46.078Z,34.63
2018-11-29T07:35:15.550Z,34.07
2018-11-29T07:37:43.979Z,32.73
2018-11-29T07:40:14.579Z,33.03
2018-11-29T07:42:43.138Z,33.00
2018-11-29T07:45:13.177Z,31.07
2018-11-29T07:47:41.596Z,31.60
2018-11-29T07:50:13.230Z,31.63
2018-11-29T07:52:41.626Z,30.57
2018-11-29T07:55:17.875Z,30.53
2018-11-29T07:57:47.143Z,27.90
2018-11-29T08:00:17.703Z,29.40
2018-11-29T08:02:46.124Z,29.60
2018-11-29T08:05:15.386Z,29.53
2018-11-29T08:07:47.747Z,28.80
2018-11-29T08:10:15.798Z,27.00
2018-11-29T08:12:44.298Z,26.30
2018-11-29T08:15:13.980Z,29.30
2018-11-29T08:17:42.476Z,27.53
2018-11-29T08:20:12.026Z,27.23
2018-11-29T08:22:40.482Z,26.20
2018-11-29T08:25:09.748Z,27.07
2018-11-29T08:27:38.158Z,24.90
2018-11-29T08:30:09.195Z,22.73
2018-11-29T08:32:37.746Z,23.67
2018-11-29T08:35:07.251Z,25.27
2018-11-29T08:37:35.856Z,43.63
2018-11-29T08:40:05.851Z,70.53
2018-11-29T08:42:34.803Z,79.13
2018-11-29T08:45:03.223Z,67.00
2018-11-29T08:47:31.653Z,70.93
2018-11-29T08:50:00.079Z,65.47
2018-11-29T08:52:28.526Z,65.23
2018-11-29T08:54:56.923Z,63.23
2018-11-29T08:57:25.406Z,66.67
2018-11-29T08:59:53.922Z,66.17
2018-11-29T09:02:22.338Z,61.20
2018-11-29T09:04:50.780Z,91.07
2018-11-29T09:07:19.202Z,94.33
2018-11-29T09:09:47.617Z,98.10
2018-11-29T09:12:16.071Z,92.13
2018-11-29T09:14:44.527Z,83.20
2018-11-29T09:17:12.931Z,78.43
2018-11-29T09:19:41.333Z,80.50
2018-11-29T09:22:09.761Z,79.30
2018-11-29T09:24:38.166Z,76.20
2018-11-29T09:27:06.954Z,74.20
2018-11-29T09:29:35.409Z,91.13
2018-11-29T09:32:03.838Z,95.77
2018-11-29T09:34:32.368Z,111.00
2018-11-29T09:37:00.783Z,103.00
2018-11-29T09:39:29.226Z,103.63
2018-11-29T09:41:57.924Z,100.17
2018-11-29T09:44:26.313Z,96.80
2018-11-29T09:46:54.721Z,94.83
2018-11-29T09:49:23.335Z,94.67
2018-11-29T09:51:51.733Z,92.30
2018-11-29T09:54:21.300Z,88.47
2018-11-29T09:56:49.758Z,91.63
2018-11-29T09:59:18.180Z,89.33
2018-11-29T10:01:46.663Z,84.93
2018-11-29T10:04:15.086Z,85.17
2018-11-29T10:06:43.488Z,85.60
2018-11-29T10:09:11.896Z,82.63
2018-11-29T10:11:40.282Z,85.73
2018-11-29T10:14:08.778Z,108.13
2018-11-29T10:16:37.178Z,121.67
2018-11-29T10:19:05.726Z,103.03
2018-11-29T10:21:34.142Z,114.70
2018-11-29T10:24:02.526Z,98.50
2018-11-29T10:26:31.013Z,116.27
2018-11-29T10:28:59.436Z,108.83
2018-11-29T10:31:27.829Z,123.10
2018-11-29T10:33:56.302Z,118.07
2018-11-29T10:36:24.701Z,118.43
2018-11-29T10:38:53.109Z,113.73
2018-11-29T10:41:21.531Z,111.77
2018-11-29T10:43:49.945Z,107.57
2018-11-29T10:46:18.348Z,111.07
2018-11-29T10:48:46.778Z,102.03
2018-11-29T10:51:15.170Z,101.40
2018-11-29T10:53:43.571Z,108.73
2018-11-29T10:56:12.033Z,110.77
2018-11-29T10:58:40.499Z,104.97
2018-11-29T11:01:14.259Z,124.13
2018-11-29T11:03:42.689Z,133.77
2018-11-29T11:06:11.110Z,121.30
2018-11-29T11:08:39.553Z,116.97
2018-11-29T11:11:08.604Z,117.47
2018-11-29T11:13:38.481Z,88.63
2018-11-29T11:16:07.362Z,99.87
2018-11-29T11:18:35.946Z,118.33
2018-11-29T11:21:04.321Z,116.13
2018-11-29T11:23:32.765Z,111.30
2018-11-29T11:26:01.169Z,107.67
2018-11-29T11:28:29.620Z,98.70
2018-11-29T11:30:58.020Z,95.80
2018-11-29T11:33:26.414Z,95.30
2018-11-29T11:35:54.818Z,89.53
2018-11-29T11:38:23.238Z,89.83
2018-11-29T11:40:51.718Z,93.83
2018-11-29T11:43:20.114Z,92.00
2018-11-29T11:45:48.539Z,103.43
2018-11-29T11:48:16.943Z,135.03
2018-11-29T11:50:45.356Z,121.00
2018-11-29T11:53:13.764Z,105.63
2018-11-29T11:55:42.205Z,102.43
2018-11-29T11:58:10.609Z,105.60
2018-11-29T12:00:39.531Z,97.33
2018-11-29T12:03:10.420Z,104.17
2018-11-29T12:05:38.833Z,83.07
2018-11-29T12:08:07.505Z,83.33
2018-11-29T12:10:36.501Z,93.13
2018-11-29T12:13:05.698Z,91.27
2018-11-29T12:15:34.106Z,81.40
2018-11-29T12:18:02.477Z,85.50
2018-11-29T12:20:30.891Z,80.50
2018-11-29T12:22:59.265Z,94.57
2018-11-29T12:25:27.694Z,80.30
2018-11-29T12:27:56.095Z,77.13
2018-11-29T12:30:26.823Z,78.43
2018-11-29T12:32:57.630Z,72.57
2018-11-29T12:35:26.073Z,55.27
2018-11-29T12:37:54.470Z,54.47
2018-11-29T12:40:22.903Z,54.23
2018-11-29T12:42:51.380Z,43.40
2018-11-29T12:45:19.778Z,39.80
2018-11-29T12:47:48.241Z,41.80
2018-11-29T12:50:18.553Z,39.90
2018-11-29T12:52:47.399Z,39.77
2018-11-29T12:55:16.782Z,37.00
2018-11-29T12:57:45.302Z,37.53
2018-11-29T13:00:15.878Z,35.93
2018-11-29T13:02:47.425Z,36.10
2018-11-29T13:05:15.919Z,33.20
2018-11-29T13:07:44.575Z,33.40
2018-11-29T13:10:14.603Z,32.63
2018-11-29T13:12:43.043Z,34.07
2018-11-29T13:15:16.079Z,30.47
2018-11-29T13:17:44.570Z,31.27
2018-11-29T13:20:15.170Z,29.27
2018-11-29T13:22:43.619Z,28.60
2018-11-29T13:25:16.519Z,26.47
2018-11-29T13:27:44.974Z,26.17
2018-11-29T13:30:19.478Z,27.73
2018-11-29T13:32:48.962Z,26.50
2018-11-29T13:35:20.175Z,24.63
2018-11-29T13:38:25.394Z,27.37
2018-11-29T13:40:53.880Z,25.03
2018-11-29T13:43:22.314Z,23.37
2018-11-29T13:45:50.740Z,22.53
2018-11-29T13:48:19.155Z,23.80
2018-11-29T13:50:47.599Z,21.00
2018-11-29T13:53:16.041Z,21.77
2018-11-29T13:55:44.551Z,24.20
2018-11-29T13:58:12.907Z,23.70
2018-11-29T14:00:41.403Z,22.63
2018-11-29T14:03:11.396Z,22.40
2018-11-29T14:05:39.870Z,22.03
2018-11-29T14:08:09.466Z,19.30
2018-11-29T14:10:38.857Z,18.87
2018-11-29T14:13:08.703Z,17.43
2018-11-29T14:15:37.678Z,15.83
2018-11-29T14:18:06.575Z,17.83
2018-11-29T14:20:35.518Z,16.13
2018-11-29T14:23:03.552Z,15.37
2018-11-29T14:25:32.601Z,15.63
2018-11-29T14:28:01.030Z,14.53
2018-11-29T14:30:30.248Z,14.80
2018-11-29T14:33:00.428Z,13.37
2018-11-29T14:35:28.986Z,12.67
2018-11-29T14:37:57.368Z,12.83
2018-11-29T14:40:27.315Z,15.03
2018-11-29T14:42:55.753Z,16.23
2018-11-29T14:45:26.007Z,14.60
2018-11-29T14:47:54.947Z,24.27
2018-11-29T14:50:26.672Z,21.90
2018-11-29T14:52:55.211Z,18.87
2018-11-29T14:55:23.660Z,21.23
2018-11-29T14:57:52.217Z,19.57
2018-11-29T15:00:20.670Z,18.77
2018-11-29T15:02:49.328Z,20.50
2018-11-29T15:05:23.143Z,22.27
2018-11-29T15:07:51.592Z,22.33
2018-11-29T15:10:20.035Z,19.33
2018-11-29T15:12:48.543Z,20.20
2018-11-29T15:15:17.940Z,20.53
2018-11-29T15:17:47.649Z,20.47
2018-11-29T15:20:18.709Z,18.60
2018-11-29T15:22:47.367Z,15.70
2018-11-29T15:25:15.687Z,17.10
2018-11-29T15:27:44.191Z,16.93
2018-11-29T15:30:14.827Z,15.27
2018-11-29T15:32:43.275Z,14.63
2018-11-29T15:35:11.735Z,17.13
2018-11-29T15:37:41.071Z,16.27
2018-11-29T15:40:11.892Z,14.83
2018-11-29T15:42:40.315Z,16.23
2018-11-29T15:45:20.966Z,18.40
2018-11-29T15:47:49.478Z,24.20
2018-11-29T15:50:17.898Z,24.60
2018-11-29T15:52:46.446Z,24.17
2018-11-29T15:55:23.224Z,23.07
2018-11-29T15:57:53.283Z,20.80
2018-11-29T16:00:26.856Z,20.53
2018-11-29T16:02:56.563Z,28.07
2018-11-29T16:05:24.988Z,25.77
2018-11-29T16:07:53.435Z,21.37
2018-11-29T16:10:23.940Z,29.43
2018-11-29T16:12:52.413Z,29.57
2018-11-29T16:15:21.426Z,28.83
2018-11-29T16:17:50.841Z,28.07
2018-11-29T16:20:24.582Z,30.80
2018-11-29T16:22:53.053Z,28.93
2018-11-29T16:25:21.474Z,26.33
2018-11-29T16:27:50.066Z,25.20
2018-11-29T16:30:31.055Z,24.77
2018-11-29T16:33:06.179Z,24.20
2018-11-29T16:35:34.700Z,25.07
2018-11-29T16:38:03.131Z,24.37
2018-11-29T16:40:31.586Z,22.70
2018-11-29T16:43:00.034Z,22.30
2018-11-29T16:45:28.649Z,21.07
2018-11-29T16:47:57.092Z,22.87
2018-11-29T16:50:25.657Z,22.73
2018-11-29T16:52:54.154Z,20.30
2018-11-29T16:55:22.751Z,19.50
2018-11-29T16:57:53.467Z,18.03
2018-11-29T17:00:23.828Z,19.00
2018-11-29T17:02:52.290Z,17.57
2018-11-29T17:05:20.818Z,40.30
2018-11-29T17:07:49.282Z,25.53
2018-11-29T17:10:19.456Z,26.40
2018-11-29T17:12:51.742Z,32.50
2018-11-29T17:15:20.312Z,34.43
2018-11-29T17:17:49.492Z,32.07
2018-11-29T17:20:18.930Z,28.80
2018-11-29T17:22:49.374Z,28.40
2018-11-29T17:25:17.838Z,27.20
2018-11-29T17:27:46.315Z,25.07
2018-11-29T17:30:21.768Z,23.50
2018-11-29T17:32:51.358Z,20.60
2018-11-29T17:35:20.089Z,20.73
2018-11-29T17:37:49.679Z,20.67
2018-11-29T17:40:19.513Z,19.83
2018-11-29T17:42:48.063Z,18.80
2018-11-29T17:45:18.001Z,18.93
2018-11-29T17:47:46.904Z,27.80
2018-11-29T17:50:22.679Z,31.80
2018-11-29T17:52:51.155Z,27.37
2018-11-29T17:55:19.744Z,25.97
2018-11-29T17:57:48.522Z,27.77
2018-11-29T18:00:20.427Z,26.83
2018-11-29T18:02:48.891Z,24.80
2018-11-29T18:05:17.348Z,26.20
2018-11-29T18:07:45.778Z,24.80
2018-11-29T18:10:16.407Z,23.17
2018-11-29T18:12:45.715Z,23.93
2018-11-29T18:15:18.821Z,22.50
2018-11-29T18:17:47.304Z,23.67
2018-11-29T18:20:15.803Z,34.20
2018-11-29T18:22:44.375Z,37.20
2018-11-29T18:25:14.136Z,40.63
2018-11-29T18:27:44.629Z,43.00
2018-11-29T18:30:21.926Z,51.60
2018-11-29T18:32:50.494Z,50.43
2018-11-29T18:35:19.004Z,49.37
2018-11-29T18:37:47.846Z,47.37
2018-11-29T18:40:18.484Z,47.13
2018-11-29T18:42:51.397Z,43.93
2018-11-29T18:45:20.406Z,45.17
2018-11-29T18:47:50.138Z,43.03
2018-11-29T18:50:20.506Z,42.60
2018-11-29T18:52:49.085Z,40.03
2018-11-29T18:55:18.016Z,39.93
2018-11-29T18:57:47.380Z,38.43
2018-11-29T19:00:21.146Z,37.83
2018-11-29T19:02:49.714Z,35.30
2018-11-29T19:05:18.309Z,38.30
2018-11-29T19:07:48.704Z,35.37
2018-11-29T19:10:18.213Z,36.87
2018-11-29T19:12:55.339Z,35.50
2018-11-29T19:15:23.787Z,35.30
2018-11-29T19:17:52.851Z,35.00
2018-11-29T19:20:21.464Z,33.67
2018-11-29T19:22:49.959Z,32.10
2018-11-29T19:25:19.454Z,32.10
2018-11-29T19:27:47.946Z,31.23
2018-11-29T19:30:19.675Z,28.70
2018-11-29T19:32:50.862Z,29.63
2018-11-29T19:35:19.359Z,28.77
2018-11-29T19:37:47.851Z,30.63
2018-11-29T19:40:17.088Z,32.43
2018-11-29T19:42:45.819Z,30.17
2018-11-29T19:45:16.017Z,29.83
2018-11-29T19:47:44.551Z,27.57
2018-11-29T19:50:16.276Z,26.00
2018-11-29T19:52:46.367Z,26.13
2018-11-29T19:55:16.680Z,25.23
2018-11-29T19:57:45.321Z,25.03
2018-11-29T20:00:14.458Z,25.27
2018-11-29T20:02:44.623Z,27.83
2018-11-29T20:05:13.642Z,26.07
2018-11-29T20:07:42.208Z,25.33
2018-11-29T20:10:14.063Z,32.67
2018-11-29T20:12:43.114Z,32.33
2018-11-29T20:15:15.607Z,36.13
2018-11-29T20:17:44.106Z,33.93
2018-11-29T20:20:12.995Z,38.33
2018-11-29T20:22:42.019Z,37.90
2018-11-29T20:25:12.871Z,36.90
2018-11-29T20:27:41.655Z,37.90
2018-11-29T20:30:14.126Z,38.03
2018-11-29T20:32:42.662Z,37.87
2018-11-29T20:35:11.914Z,36.83
2018-11-29T20:37:40.716Z,35.00
2018-11-29T20:40:18.634Z,31.03
2018-11-29T20:42:48.508Z,30.40
2018-11-29T20:45:21.283Z,29.27
2018-11-29T20:47:49.735Z,27.43
2018-11-29T20:50:19.735Z,27.23
2018-11-29T20:52:49.488Z,25.60
2018-11-29T20:55:23.717Z,24.37
2018-11-29T20:57:52.138Z,23.47
2018-11-29T21:00:20.562Z,22.47
2018-11-29T21:02:49.119Z,25.70
2018-11-29T21:05:18.734Z,27.20
2018-11-29T21:07:50.065Z,23.67
2018-11-29T21:10:22.902Z,25.63
2018-11-29T21:12:51.459Z,28.90
2018-11-29T21:15:20.015Z,31.73
2018-11-29T21:17:48.515Z,25.73
2018-11-29T21:20:19.059Z,31.57
2018-11-29T21:22:48.788Z,27.90
2018-11-29T21:25:20.574Z,28.23
2018-11-29T21:27:49.009Z,26.47
2018-11-29T21:30:17.679Z,26.50
2018-11-29T21:32:46.894Z,29.90
2018-11-29T21:35:18.738Z,27.90
2018-11-29T21:37:47.166Z,29.43
2018-11-29T21:40:20.080Z,33.80
2018-11-29T21:42:48.545Z,36.67
2018-11-29T21:45:17.166Z,42.07
2018-11-29T21:47:45.663Z,44.67
2018-11-29T21:50:14.140Z,47.37
2018-11-29T21:52:42.549Z,50.07
2018-11-29T21:55:10.993Z,44.50
2018-11-29T21:57:39.558Z,44.97
2018-11-29T22:00:12.918Z,57.30
2018-11-29T22:02:44.198Z,53.03
2018-11-29T22:05:13.451Z,53.47
2018-11-29T22:07:41.945Z,56.20
2018-11-29T22:10:10.447Z,54.93
2018-11-29T22:12:38.895Z,61.33
2018-11-29T22:15:09.572Z,63.03
2018-11-29T22:18:48.136Z,65.10
2018-11-29T22:21:16.519Z,72.53
2018-11-29T22:23:45.370Z,79.77
2018-11-29T22:26:15.240Z,82.57
2018-11-29T22:28:43.843Z,97.77
2018-11-29T22:31:12.676Z,102.37
2018-11-29T22:33:41.103Z,101.93
2018-11-29T22:36:09.539Z,105.40
2018-11-29T22:38:37.979Z,110.50
2018-11-29T22:41:06.485Z,106.60
2018-11-29T22:43:35.418Z,106.87
2018-11-29T22:46:03.900Z,116.73
2018-11-29T22:48:32.451Z,114.53
2018-11-29T22:51:00.895Z,112.63
2018-11-29T22:53:29.544Z,111.97
2018-11-29T22:55:57.999Z,104.10
2018-11-29T22:58:26.449Z,101.40
2018-11-29T23:00:54.918Z,96.50
2018-11-29T23:03:24.485Z,106.73
2018-11-29T23:05:53.111Z,122.30
2018-11-29T23:08:21.526Z,120.50
2018-11-29T23:10:49.950Z,122.33
2018-11-29T23:13:18.381Z,128.43
2018-11-29T23:15:46.806Z,124.17
2018-11-29T23:18:15.303Z,119.70
2018-11-29T23:20:43.724Z,116.97
2018-11-29T23:23:12.148Z,117.90
2018-11-29T23:25:40.626Z,113.63
2018-11-29T23:28:09.827Z,117.30
2018-11-29T23:30:38.259Z,115.20
2018-11-29T23:33:06.670Z,119.97
2018-11-29T23:35:35.099Z,127.03
2018-11-29T23:38:03.506Z,128.50
2018-11-29T23:40:31.991Z,134.40
2018-11-29T23:43:00.427Z,125.10
2018-11-29T23:45:28.867Z,123.87
2018-11-29T23:47:57.311Z,119.37
2018-11-29T23:50:25.726Z,119.07
2018-11-29T23:52:54.167Z,116.30
2018-11-29T23:55:22.891Z,122.10
2018-11-29T23:57:51.416Z,120.43
